createdAt,value
2018-11-21T00:00:10.401Z,-0.40
2018-11-21T00:02:38.782Z,-0.40
2018-11-21T00:05:07.433Z,-0.40
2018-11-21T00:07:36.508Z,-0.40
2018-11-21T00:10:09.160Z,-0.30
2018-11-21T00:12:38.334Z,-0.30
2018-11-21T00:15:08.464Z,-0.30
2018-11-21T00:17:36.836Z,-0.30
2018-11-21T00:20:06.295Z,-0.30
2018-11-21T00:22:35.056Z,-0.30
2018-11-21T00:25:03.443Z,-0.30
2018-11-21T00:27:32.011Z,-0.20
2018-11-21T00:30:00.370Z,-0.20
2018-11-21T00:32:29.069Z,-0.20
2018-11-21T00:34:57.472Z,-0.20
2018-11-21T00:37:28.971Z,-0.20
2018-11-21T00:39:57.349Z,-0.20
2018-11-21T00:42:25.814Z,-0.20
2018-11-21T00:44:54.236Z,-0.10
2018-11-21T00:47:22.642Z,-0.10
2018-11-21T00:49:51.120Z,-0.20
2018-11-21T00:52:19.515Z,-0.20
2018-11-21T00:54:51.107Z,-0.20
2018-11-21T00:57:19.529Z,-0.20
2018-11-21T00:59:47.881Z,-0.20
2018-11-21T01:02:16.297Z,-0.20
2018-11-21T01:04:44.736Z,-0.10
2018-11-21T01:07:13.171Z,-0.10
2018-11-21T01:09:41.588Z,-0.10
2018-11-21T01:12:10.227Z,-0.10
2018-11-21T01:14:38.659Z,-0.10
2018-11-21T01:17:07.092Z,-0.10
2018-11-21T01:19:35.611Z,-0.10
2018-11-21T01:22:04.016Z,-0.10
2018-11-21T01:24:32.458Z,-0.10
2018-11-21T01:27:00.855Z,-0.10
2018-11-21T01:29:29.299Z,-0.10
2018-11-21T01:31:58.024Z,-0.10
2018-11-21T01:34:26.442Z,-0.10
2018-11-21T01:36:54.822Z,-0.10
2018-11-21T01:39:23.215Z,-0.10
2018-11-21T01:41:53.035Z,-0.10
2018-11-21T01:44:21.476Z,-0.10
2018-11-21T01:46:49.844Z,-0.10
2018-11-21T01:49:18.269Z,-0.10
2018-11-21T01:51:46.609Z,-0.10
2018-11-21T01:54:14.986Z,-0.10
2018-11-21T01:56:43.347Z,-0.10
2018-11-21T01:59:11.753Z,-0.10
2018-11-21T02:01:40.207Z,-0.10
2018-11-21T02:04:08.673Z,-0.10
2018-11-21T02:06:37.298Z,-0.10
2018-11-21T02:09:09.110Z,-0.10
2018-11-21T02:11:37.735Z,-0.10
2018-11-21T02:14:06.442Z,-0.10
2018-11-21T02:16:34.757Z,-0.10
2018-11-21T02:19:03.236Z,-0.10
2018-11-21T02:21:32.035Z,0.00
2018-11-21T02:24:00.514Z,0.00
2018-11-21T02:26:29.164Z,0.00
2018-11-21T02:28:57.675Z,0.00
2018-11-21T02:31:25.991Z,0.00
2018-11-21T02:33:54.405Z,0.10
2018-11-21T02:36:22.803Z,0.10
2018-11-21T02:38:51.502Z,0.10
2018-11-21T02:41:19.932Z,0.00
2018-11-21T02:43:48.460Z,0.00
2018-11-21T02:46:16.842Z,0.00
2018-11-21T02:48:45.227Z,0.00
2018-11-21T02:51:13.637Z,0.00
2018-11-21T02:53:42.055Z,0.00
2018-11-21T02:56:10.866Z,0.00
2018-11-21T02:58:39.267Z,-0.10
2018-11-21T03:01:07.685Z,0.00
2018-11-21T03:03:36.170Z,0.00
2018-11-21T03:06:04.515Z,0.00
2018-11-21T03:08:32.938Z,0.00
2018-11-21T03:11:01.322Z,0.00
2018-11-21T03:13:29.694Z,0.00
2018-11-21T03:15:58.209Z,0.00
2018-11-21T03:18:26.800Z,0.00
2018-11-21T03:20:55.353Z,0.00
2018-11-21T03:23:23.788Z,0.00
2018-11-21T03:25:52.167Z,0.00
2018-11-21T03:28:20.548Z,0.00
2018-11-21T03:30:49.108Z,0.10
2018-11-21T03:33:17.517Z,0.10
2018-11-21T03:35:45.903Z,0.10
2018-11-21T03:38:16.358Z,0.10
2018-11-21T03:40:44.715Z,0.10
2018-11-21T03:43:13.094Z,0.10
2018-11-21T03:45:41.527Z,0.10
2018-11-21T03:48:09.921Z,0.10
2018-11-21T03:50:38.290Z,0.10
2018-11-21T03:53:06.802Z,0.10
2018-11-21T03:55:35.258Z,0.10
2018-11-21T03:58:03.639Z,0.00
2018-11-21T04:00:32.060Z,0.00
2018-11-21T04:03:00.446Z,0.00
2018-11-21T04:05:28.830Z,0.00
2018-11-21T04:07:58.376Z,0.00
2018-11-21T04:10:26.741Z,0.00
2018-11-21T04:12:55.120Z,0.00
2018-11-21T04:15:23.595Z,0.00
2018-11-21T04:17:51.934Z,0.00
2018-11-21T04:20:20.391Z,0.00
2018-11-21T04:22:48.778Z,0.00
2018-11-21T04:25:17.150Z,0.00
2018-11-21T04:27:45.557Z,0.00
2018-11-21T04:30:13.896Z,0.00
2018-11-21T04:32:43.017Z,0.00
2018-11-21T04:35:11.425Z,0.00
2018-11-21T04:37:39.780Z,0.00
2018-11-21T04:40:08.689Z,0.00
2018-11-21T04:42:37.783Z,0.00
2018-11-21T04:45:07.570Z,0.00
2018-11-21T04:47:36.004Z,0.00
2018-11-21T04:50:05.053Z,0.00
2018-11-21T04:52:33.523Z,0.00
2018-11-21T04:55:01.931Z,0.00
2018-11-21T04:57:30.344Z,0.00
2018-11-21T04:59:58.745Z,0.00
2018-11-21T05:02:27.194Z,0.10
2018-11-21T05:04:55.612Z,0.10
2018-11-21T05:07:24.109Z,0.10
2018-11-21T05:09:52.538Z,0.10
2018-11-21T05:12:20.940Z,0.10
2018-11-21T05:14:49.340Z,0.10
2018-11-21T05:17:17.741Z,0.10
2018-11-21T05:19:46.163Z,0.00
2018-11-21T05:22:16.521Z,0.00
2018-11-21T05:24:45.135Z,0.00
2018-11-21T05:27:13.581Z,0.10
2018-11-21T05:29:42.197Z,0.10
2018-11-21T05:32:10.635Z,0.10
2018-11-21T05:34:39.400Z,0.10
2018-11-21T05:37:08.356Z,0.10
2018-11-21T05:39:36.752Z,0.10
2018-11-21T05:42:05.455Z,0.10
2018-11-21T05:44:33.899Z,0.10
2018-11-21T05:47:02.318Z,0.10
2018-11-21T05:49:30.704Z,0.00
2018-11-21T05:51:59.157Z,0.00
2018-11-21T05:54:27.558Z,0.10
2018-11-21T05:56:55.974Z,0.10
2018-11-21T05:59:24.415Z,0.10
2018-11-21T06:01:52.818Z,0.10
2018-11-21T06:04:21.197Z,0.10
2018-11-21T06:06:49.598Z,0.20
2018-11-21T06:09:18.036Z,0.20
2018-11-21T06:11:46.468Z,0.10
2018-11-21T06:14:14.900Z,0.10
2018-11-21T06:16:43.302Z,0.10
2018-11-21T06:19:11.672Z,0.10
2018-11-21T06:21:40.426Z,0.10
2018-11-21T06:24:08.861Z,0.10
2018-11-21T06:26:37.339Z,0.10
2018-11-21T06:29:05.917Z,0.10
2018-11-21T06:31:34.378Z,0.10
2018-11-21T06:34:03.937Z,0.10
2018-11-21T06:36:32.357Z,0.10
2018-11-21T06:39:00.836Z,0.10
2018-11-21T06:41:29.495Z,0.10
2018-11-21T06:43:57.956Z,0.20
2018-11-21T06:46:26.376Z,0.20
2018-11-21T06:48:54.759Z,0.20
2018-11-21T06:51:23.169Z,0.20
2018-11-21T06:53:51.550Z,0.20
2018-11-21T06:56:19.924Z,0.20
2018-11-21T06:58:48.375Z,0.20
2018-11-21T07:01:16.756Z,0.20
2018-11-21T07:03:45.256Z,0.20
2018-11-21T07:06:13.747Z,0.20
2018-11-21T07:08:42.152Z,0.30
2018-11-21T07:11:10.507Z,0.30
2018-11-21T07:13:39.057Z,0.30
2018-11-21T07:16:07.440Z,0.30
2018-11-21T07:18:35.850Z,0.30
2018-11-21T07:21:04.833Z,0.40
2018-11-21T07:23:33.171Z,0.30
2018-11-21T07:26:01.745Z,0.30
2018-11-21T07:28:30.159Z,0.30
2018-11-21T07:30:58.529Z,0.40
2018-11-21T07:33:26.935Z,0.40
2018-11-21T07:35:55.414Z,0.40
2018-11-21T07:38:23.825Z,0.40
2018-11-21T07:40:52.284Z,0.40
2018-11-21T07:43:20.687Z,0.40
2018-11-21T07:45:51.415Z,0.50
2018-11-21T07:48:20.498Z,0.40
2018-11-21T07:50:48.229Z,0.40
2018-11-21T07:53:17.084Z,0.40
2018-11-21T07:55:45.530Z,0.40
2018-11-21T07:58:16.065Z,0.40
2018-11-21T08:01:16.740Z,0.50
2018-11-21T08:04:04.254Z,0.50
2018-11-21T08:06:51.824Z,0.50
2018-11-21T08:09:35.929Z,0.60
2018-11-21T08:12:23.487Z,0.60
2018-11-21T08:15:01.658Z,0.60
2018-11-21T08:17:49.254Z,0.60
2018-11-21T08:20:34.011Z,0.70
2018-11-21T08:23:11.495Z,0.70
2018-11-21T08:25:59.066Z,0.70
2018-11-21T08:28:31.273Z,0.80
2018-11-21T08:30:59.935Z,0.80
2018-11-21T08:33:33.902Z,0.80
2018-11-21T08:35:57.598Z,0.80
2018-11-21T08:38:26.102Z,0.90
2018-11-21T08:40:54.424Z,1.00
2018-11-21T08:43:22.827Z,1.00
2018-11-21T08:45:51.325Z,1.00
2018-11-21T08:48:20.684Z,1.00
2018-11-21T08:50:49.212Z,1.00
2018-11-21T08:53:17.591Z,1.00
2018-11-21T08:55:46.036Z,1.00
2018-11-21T08:58:15.131Z,1.10
2018-11-21T09:00:43.655Z,1.10
2018-11-21T09:03:12.122Z,1.20
2018-11-21T09:05:40.518Z,1.20
2018-11-21T09:08:09.018Z,1.20
2018-11-21T09:10:37.385Z,1.20
2018-11-21T09:13:05.838Z,1.30
2018-11-21T09:15:34.277Z,1.40
2018-11-21T09:18:02.695Z,1.40
2018-11-21T09:20:31.062Z,1.50
2018-11-21T09:22:59.575Z,1.50
2018-11-21T09:25:27.975Z,1.60
2018-11-21T09:27:56.416Z,1.70
2018-11-21T09:30:24.832Z,1.70
2018-11-21T09:32:54.674Z,1.80
2018-11-21T09:35:23.129Z,1.90
2018-11-21T09:37:51.551Z,1.90
2018-11-21T09:40:21.378Z,1.90
2018-11-21T09:42:51.155Z,2.00
2018-11-21T09:45:20.955Z,2.00
2018-11-21T09:47:49.355Z,2.00
2018-11-21T09:50:20.102Z,2.10
2018-11-21T09:52:51.228Z,2.00
2018-11-21T09:55:19.609Z,2.00
2018-11-21T09:57:48.014Z,2.10
2018-11-21T10:00:55.479Z,2.10
2018-11-21T10:03:26.545Z,2.10
2018-11-21T10:06:05.055Z,2.20
2018-11-21T10:08:38.162Z,2.30
2018-11-21T10:11:07.625Z,2.40
2018-11-21T10:16:17.194Z,2.60
2018-11-21T10:19:00.108Z,2.60
2018-11-21T10:21:30.095Z,2.70
2018-11-21T10:23:58.577Z,2.70
2018-11-21T10:26:26.905Z,2.80
2018-11-21T10:28:55.786Z,2.90
2018-11-21T10:31:24.314Z,3.10
2018-11-21T10:33:52.700Z,3.50
2018-11-21T10:36:21.075Z,3.90
2018-11-21T10:38:49.713Z,4.20
2018-11-21T10:41:21.315Z,4.60
2018-11-21T10:43:49.675Z,4.80
2018-11-21T10:46:18.136Z,5.10
2018-11-21T10:48:46.691Z,5.40
2018-11-21T10:51:15.182Z,5.80
2018-11-21T10:53:43.583Z,6.10
2018-11-21T10:56:12.094Z,6.40
2018-11-21T10:58:40.548Z,7.00
2018-11-21T11:01:28.197Z,7.30
2018-11-21T11:03:59.554Z,7.10
2018-11-21T11:06:47.321Z,6.70
2018-11-21T11:09:34.925Z,6.40
2018-11-21T11:12:18.842Z,6.00
2018-11-21T11:15:06.512Z,5.80
2018-11-21T11:17:59.226Z,5.60
2018-11-21T11:20:41.815Z,5.40
2018-11-21T11:23:29.375Z,5.20
2018-11-21T11:26:16.934Z,5.00
2018-11-21T11:29:03.581Z,4.90
2018-11-21T11:31:51.157Z,4.80
2018-11-21T11:34:29.708Z,4.70
2018-11-21T11:37:17.249Z,4.60
2018-11-21T11:40:04.933Z,4.50
2018-11-21T11:42:52.563Z,4.50
2018-11-21T11:45:40.265Z,4.50
2018-11-21T11:48:26.288Z,4.40
2018-11-21T11:51:14.630Z,4.40
2018-11-21T11:54:02.487Z,4.30
2018-11-21T11:56:50.096Z,4.30
2018-11-21T11:59:37.681Z,4.50
2018-11-21T12:02:25.420Z,4.70
2018-11-21T12:05:13.022Z,4.80
2018-11-21T12:08:00.594Z,4.90
2018-11-21T12:10:48.168Z,4.90
2018-11-21T12:13:36.280Z,4.90
2018-11-21T12:16:24.344Z,4.90
2018-11-21T12:19:11.980Z,4.80
2018-11-21T12:21:59.632Z,4.70
2018-11-21T12:24:40.097Z,4.60
2018-11-21T12:27:21.597Z,4.40
2018-11-21T12:30:09.736Z,4.20
2018-11-21T12:33:01.278Z,4.10
2018-11-21T12:35:48.839Z,4.00
2018-11-21T12:38:36.422Z,3.70
2018-11-21T12:41:24.250Z,3.60
2018-11-21T12:44:04.953Z,3.40
2018-11-21T12:46:52.641Z,3.30
2018-11-21T12:49:40.316Z,3.20
2018-11-21T12:52:27.890Z,3.10
2018-11-21T12:55:15.514Z,3.10
2018-11-21T12:58:03.051Z,3.00
2018-11-21T13:00:42.574Z,2.90
2018-11-21T13:03:30.217Z,2.90
2018-11-21T13:06:17.755Z,2.80
2018-11-21T13:09:05.616Z,2.80
2018-11-21T13:11:53.394Z,2.70
2018-11-21T13:14:41.050Z,2.70
2018-11-21T13:17:28.841Z,2.70
2018-11-21T13:20:16.403Z,2.70
2018-11-21T13:23:04.054Z,2.60
2018-11-21T13:25:51.573Z,2.60
2018-11-21T13:28:34.195Z,2.60
2018-11-21T13:31:21.823Z,2.50
2018-11-21T13:34:04.981Z,2.50
2018-11-21T13:36:54.055Z,2.40
2018-11-21T13:39:41.634Z,2.40
2018-11-21T13:42:30.527Z,2.40
2018-11-21T13:45:18.029Z,2.40
2018-11-21T13:48:05.627Z,2.40
2018-11-21T13:50:53.375Z,2.40
2018-11-21T13:53:40.995Z,2.30
2018-11-21T13:56:09.413Z,2.20
2018-11-21T13:58:38.263Z,2.20
2018-11-21T14:01:06.855Z,2.20
2018-11-21T14:03:38.264Z,2.10
2018-11-21T14:06:06.676Z,2.10
2018-11-21T14:09:06.032Z,2.00
2018-11-21T14:11:45.538Z,2.00
2018-11-21T14:14:19.415Z,2.00
2018-11-21T14:16:56.159Z,1.90
2018-11-21T14:19:25.481Z,1.90
2018-11-21T14:21:55.982Z,1.90
2018-11-21T14:24:22.482Z,2.00
2018-11-21T14:26:50.914Z,2.00
2018-11-21T14:29:19.314Z,2.00
2018-11-21T14:31:47.893Z,2.00
2018-11-21T14:34:16.526Z,2.00
